Time;durP1;ratioP1;P1;durP2;ratioP2;P2;SDS_P1;SDS_P2;PMS_P1;PMS_P2;Temp;Humidity;BMP_temperature;BMP_pressure;BME280_temperature;BME280_humidity;BME280_pressure;Samples;Min_cycle;Max_cycle;Signal;HPM_P1;HPM_P2
2022/02/02 00:02:08;;;;;;;13.40;2.60;;;;;;;4.19;87.41;98378.58;106007;1270;22704;-59
2022/02/02 00:04:44;;;;;;;13.20;2.70;;;;;;;4.19;87.42;98388.44;105851;1270;26483;-62
2022/02/02 00:07:27;;;;;;;11.40;1.90;;;;;;;4.20;87.46;98382.55;105831;1270;26815;-60
2022/02/02 00:10:04;;;;;;;15.00;3.60;;;;;;;4.20;87.52;98389.94;105822;1270;24084;-62
2022/02/02 00:12:41;;;;;;;20.30;4.10;;;;;;;4.21;87.48;98388.41;105768;1270;24457;-59
2022/02/02 00:18:08;;;;;;;15.60;3.20;;;;;;;4.23;87.49;98389.88;105945;1270;23209;-63
2022/02/02 00:20:49;;;;;;;15.30;2.10;;;;;;;4.24;87.46;98394.86;105792;1270;24316;-60
2022/02/02 00:26:05;;;;;;;13.40;2.20;;;;;;;4.25;87.44;98391.16;106358;1262;22566;-62
2022/02/02 00:28:38;;;;;;;10.80;1.50;;;;;;;4.26;87.54;98391.14;106047;1270;22562;-60
2022/02/02 00:31:12;;;;;;;9.70;1.30;;;;;;;4.26;87.44;98389.94;106057;1270;25696;-59
2022/02/02 00:33:45;;;;;;;9.00;1.50;;;;;;;4.26;87.41;98393.24;106089;1270;22574;-59
2022/02/02 00:36:18;;;;;;;15.50;1.50;;;;;;;4.25;87.37;98394.95;106091;1270;24232;-59
2022/02/02 00:38:47;;;;;;;9.00;1.40;;;;;;;4.25;87.32;98395.90;106032;1270;23335;-58
2022/02/02 00:41:19;;;;;;;11.20;1.40;;;;;;;4.26;87.34;98397.86;106032;1271;22621;-61
2022/02/02 00:43:58;;;;;;;6.90;1.10;;;;;;;4.25;87.31;98400.23;106065;1271;25389;-60
2022/02/02 00:46:28;;;;;;;15.20;1.50;;;;;;;4.26;87.34;98396.91;105994;1270;26594;-58
2022/02/02 00:49:00;;;;;;;12.40;2.00;;;;;;;4.25;87.33;98394.67;106096;1270;22636;-60
2022/02/02 00:51:40;;;;;;;10.90;1.20;;;;;;;4.23;87.22;98396.75;105953;1270;24347;-58
2022/02/02 00:54:10;;;;;;;10.00;1.00;;;;;;;4.20;87.13;98396.91;105828;1270;22543;-59
2022/02/02 00:56:38;;;;;;;10.30;1.00;;;;;;;4.18;87.14;98393.88;106091;1270;25558;-59
2022/02/02 00:59:07;;;;;;;10.50;1.40;;;;;;;4.16;87.04;98397.56;106111;1270;22548;-61
2022/02/02 01:01:35;;;;;;;6.70;0.70;;;;;;;4.14;86.95;98399.65;105954;1270;22541;-60
2022/02/02 01:04:04;;;;;;;16.40;1.00;;;;;;;4.12;86.95;98400.12;106056;1270;24327;-59
2022/02/02 01:06:37;;;;;;;7.00;0.90;;;;;;;4.10;87.00;98397.92;106040;1270;22560;-59
2022/02/02 01:09:16;;;;;;;13.00;1.30;;;;;;;4.09;86.92;98397.28;106033;1270;22694;-59
2022/02/02 01:11:54;;;;;;;10.10;0.90;;;;;;;4.09;86.95;98397.09;105930;1271;24428;-60
2022/02/02 01:17:45;;;;;;;13.70;1.20;;;;;;;4.09;86.91;98400.04;105921;1269;24295;-61
2022/02/02 01:20:29;;;;;;;3.90;0.70;;;;;;;4.10;86.80;98401.55;105978;1270;25492;-59
2022/02/02 01:28:33;;;;;;;18.40;1.60;;;;;;;4.21;86.57;98409.95;105872;1270;26526;-59
2022/02/02 01:31:02;;;;;;;13.70;1.00;;;;;;;4.24;86.33;98420.89;106172;1270;24409;-60
2022/02/02 01:33:33;;;;;;;14.00;1.00;;;;;;;4.28;86.28;98414.67;106171;1270;24320;-59
2022/02/02 01:36:05;;;;;;;10.10;1.40;;;;;;;4.30;86.11;98413.59;106075;1270;22573;-59
2022/02/02 01:38:35;;;;;;;10.00;1.00;;;;;;;4.31;86.07;98411.95;105952;1270;25501;-62
2022/02/02 01:41:08;;;;;;;12.70;0.70;;;;;;;4.29;85.91;98409.07;105768;1270;24358;-59
2022/02/02 01:43:43;;;;;;;10.30;0.70;;;;;;;4.29;85.90;98418.34;105867;1270;22534;-59
2022/02/02 01:46:16;;;;;;;8.70;0.70;;;;;;;4.29;85.93;98415.93;105803;1269;23463;-59
2022/02/02 01:48:50;;;;;;;9.60;0.90;;;;;;;4.30;85.89;98417.90;106218;1270;24242;-59
2022/02/02 01:54:14;;;;;;;11.30;0.90;;;;;;;4.30;85.97;98421.52;106049;1270;24245;-58
2022/02/02 01:56:44;;;;;;;9.30;0.70;;;;;;;4.30;86.03;98422.98;106030;1270;22570;-59
2022/02/02 01:59:24;;;;;;;6.70;0.60;;;;;;;4.30;85.87;98431.06;106205;1270;22560;-60
2022/02/02 02:01:52;;;;;;;9.40;0.80;;;;;;;4.32;85.77;98432.61;106223;1271;22625;-61
2022/02/02 02:04:22;;;;;;;15.60;1.20;;;;;;;4.33;85.64;98432.31;106035;1270;22557;-59
2022/02/02 02:06:50;;;;;;;12.90;0.90;;;;;;;4.34;85.51;98443.98;106198;1270;23753;-59
2022/02/02 02:09:24;;;;;;;7.20;0.80;;;;;;;4.35;85.39;98441.18;106161;1270;24652;-59
2022/02/02 02:11:58;;;;;;;7.50;1.30;;;;;;;4.35;85.12;98445.05;106013;1270;22534;-60
2022/02/02 02:14:45;;;;;;;9.20;0.90;;;;;;;4.35;85.03;98444.70;106007;1270;25730;-59
2022/02/02 02:17:14;;;;;;;8.70;0.90;;;;;;;4.35;84.92;98450.63;105952;1270;25222;-60
2022/02/02 02:19:46;;;;;;;8.80;0.60;;;;;;;4.35;84.98;98454.84;108015;1270;22531;-59
2022/02/02 02:22:21;;;;;;;9.00;0.80;;;;;;;4.33;84.89;98456.38;108686;1270;23084;-59
2022/02/02 02:24:50;;;;;;;11.60;1.00;;;;;;;4.32;84.63;98449.73;106148;1270;24431;-59
2022/02/02 02:27:21;;;;;;;10.00;0.90;;;;;;;4.32;84.63;98450.84;106001;1270;22550;-59
2022/02/02 02:30:00;;;;;;;10.70;1.00;;;;;;;4.30;84.70;98453.77;106137;1270;24296;-59
2022/02/02 02:33:08;;;;;;;12.70;2.00;;;;;;;4.29;84.81;98451.73;105947;1270;22550;-58
2022/02/02 02:58:06;;;;;;;12.40;0.80;;;;;;;4.21;84.35;98472.42;105510;1276;22569;-59
2022/02/02 03:00:51;;;;;;;7.70;0.60;;;;;;;4.21;84.40;98475.83;105404;1276;22559;-59
2022/02/02 03:31:31;;;;;;;5.70;0.60;;;;;;;4.20;84.10;98481.98;105933;1270;22531;-59
2022/02/02 03:51:20;;;;;;;10.80;0.80;;;;;;;4.14;83.81;98510.56;106002;1270;22639;-59
2022/02/02 03:59:41;;;;;;;4.70;0.40;;;;;;;4.09;83.69;98523.89;106075;1274;24328;-62
2022/02/02 04:02:43;;;;;;;9.30;1.20;;;;;;;4.08;83.66;98524.89;106171;1273;24635;-62
2022/02/02 04:05:27;;;;;;;6.50;0.90;;;;;;;4.07;83.83;98524.96;106328;1273;25393;-61
2022/02/02 04:08:08;;;;;;;5.80;0.70;;;;;;;4.06;83.75;98526.36;106423;1273;22553;-60
2022/02/02 04:10:36;;;;;;;9.40;1.10;;;;;;;4.04;83.80;98518.02;106419;1274;22709;-59
2022/02/02 04:13:12;;;;;;;7.00;0.90;;;;;;;4.00;83.72;98522.79;106414;1274;25457;-63
2022/02/02 04:52:18;;;;;;;12.10;1.70;;;;;;;3.59;86.27;98520.36;106228;1273;23989;-60
2022/02/02 04:54:53;;;;;;;11.20;1.00;;;;;;;3.58;86.35;98516.14;106260;1274;25239;-59
2022/02/02 04:57:49;;;;;;;11.50;1.30;;;;;;;3.57;86.40;98521.58;106217;1273;24384;-59
2022/02/02 05:06:14;;;;;;;11.50;1.50;;;;;;;3.59;86.62;98525.24;105911;1279;22662;-61
2022/02/02 05:08:49;;;;;;;14.90;1.80;;;;;;;3.59;86.49;98527.51;105905;1279;22547;-62
2022/02/02 05:11:35;;;;;;;16.00;1.70;;;;;;;3.62;86.51;98531.22;105967;1279;22706;-60
2022/02/02 05:50:55;;;;;;;12.40;1.00;;;;;;;3.77;85.97;98571.99;106432;1270;24627;-60
2022/02/02 05:53:25;;;;;;;12.90;0.90;;;;;;;3.75;85.86;98576.58;106407;1270;25388;-60
2022/02/02 05:55:54;;;;;;;8.00;1.10;;;;;;;3.75;85.86;98577.48;106575;1270;24204;-58
2022/02/02 05:58:26;;;;;;;9.90;1.70;;;;;;;3.74;85.66;98578.83;106515;1270;25383;-58
2022/02/02 06:00:56;;;;;;;10.60;1.10;;;;;;;3.73;85.70;98580.61;106569;1271;24236;-58
2022/02/02 06:03:36;;;;;;;18.00;1.50;;;;;;;3.72;85.71;98573.67;106472;1270;22578;-57
2022/02/02 06:06:06;;;;;;;11.50;1.60;;;;;;;3.71;85.63;98573.59;106320;1270;23944;-57
2022/02/02 06:08:35;;;;;;;13.10;1.40;;;;;;;3.70;85.68;98579.09;106352;1270;26597;-57
2022/02/02 06:11:06;;;;;;;17.80;1.40;;;;;;;3.69;85.75;98579.58;106648;1270;25379;-57
2022/02/02 06:13:40;;;;;;;;;;;;;;;3.69;85.82;98587.91;106305;1270;22734;-58
2022/02/02 06:16:10;;;;;;;12.60;1.00;;;;;;;3.70;85.99;98591.77;106200;1270;22554;-61
2022/02/02 06:18:39;;;;;;;26.30;2.20;;;;;;;3.70;86.06;98593.90;106362;1270;24232;-58
2022/02/02 06:21:09;;;;;;;12.50;2.00;;;;;;;3.71;86.17;98602.34;108516;1270;22553;-60
2022/02/02 06:23:42;;;;;;;13.60;1.10;;;;;;;3.71;86.15;98602.98;106326;1270;22554;-59
2022/02/02 06:26:15;;;;;;;13.30;1.30;;;;;;;3.71;86.22;98608.64;106807;1262;25446;-56
2022/02/02 06:28:45;;;;;;;22.10;1.30;;;;;;;3.72;86.19;98614.36;105662;1270;22541;-58
2022/02/02 06:31:14;;;;;;;;;;;;;;;3.72;86.33;98620.13;105631;1270;22706;-56
2022/02/02 06:33:47;;;;;;;13.70;1.10;;;;;;;3.71;86.49;98619.70;105790;1270;23470;-57
2022/02/02 06:36:16;;;;;;;17.30;1.50;;;;;;;3.69;86.47;98626.04;105885;1270;25301;-56
2022/02/02 06:38:46;;;;;;;9.90;1.70;;;;;;;3.66;86.44;98631.29;105742;1270;22562;-57
2022/02/02 06:41:16;;;;;;;10.80;1.80;;;;;;;3.63;86.23;98634.39;105791;1270;24198;-60
2022/02/02 06:43:45;;;;;;;;;;;;;;;3.61;86.32;98638.66;106008;1270;25361;-58
2022/02/02 06:46:16;;;;;;;12.70;1.60;;;;;;;3.59;86.38;98643.80;105848;1270;22625;-59
2022/02/02 06:48:44;;;;;;;17.00;1.50;;;;;;;3.58;86.32;98643.87;106136;1270;22602;-58
2022/02/02 06:51:18;;;;;;;11.00;1.10;;;;;;;3.55;86.24;98644.96;106172;1270;22643;-59
2022/02/02 06:54:00;;;;;;;10.30;2.00;;;;;;;3.52;86.19;98640.23;105700;1270;22551;-57
2022/02/02 06:56:45;;;;;;;11.60;1.40;;;;;;;3.50;86.13;98647.83;105969;1270;22556;-58
2022/02/02 06:59:37;;;;;;;14.40;1.00;;;;;;;3.49;86.07;98652.20;106087;1270;22583;-59
2022/02/02 07:02:22;;;;;;;11.70;1.00;;;;;;;3.46;86.12;98652.28;105984;1270;22843;-57
2022/02/02 07:08:04;;;;;;;7.90;0.80;;;;;;;3.43;86.07;98661.62;105913;1268;23051;-57
2022/02/02 07:13:36;;;;;;;12.20;1.30;;;;;;;3.41;86.06;98661.11;105908;1270;22559;-56
2022/02/02 07:16:22;;;;;;;13.50;1.30;;;;;;;3.41;86.18;98672.45;106119;1270;24501;-59
2022/02/02 07:19:05;;;;;;;12.10;1.40;;;;;;;3.43;86.31;98679.86;105789;1270;24304;-58
2022/02/02 07:21:57;;;;;;;13.20;1.90;;;;;;;3.47;86.50;98690.14;105762;1270;24268;-59
2022/02/02 07:24:52;;;;;;;20.40;2.00;;;;;;;3.52;86.58;98698.71;105839;1270;22540;-57
2022/02/02 07:30:31;;;;;;;17.90;1.40;;;;;;;3.59;87.19;98711.77;105684;1270;25318;-58
2022/02/02 07:33:09;;;;;;;20.40;2.60;;;;;;;3.61;87.35;98711.81;105851;1271;22548;-58
2022/02/02 07:35:51;;;;;;;26.00;3.00;;;;;;;3.61;87.38;98712.52;105872;1270;22546;-61
2022/02/02 07:38:25;;;;;;;13.70;2.20;;;;;;;3.62;87.51;98730.55;105950;1270;25563;-58
2022/02/02 07:41:01;;;;;;;17.20;1.70;;;;;;;3.63;87.47;98726.95;106016;1270;22831;-58
2022/02/02 07:43:33;;;;;;;15.60;2.20;;;;;;;3.63;87.32;98730.72;105829;1270;22538;-57
2022/02/02 07:46:07;;;;;;;11.50;1.10;;;;;;;3.62;87.00;98729.55;105992;1270;23052;-56
2022/02/02 07:48:39;;;;;;;12.10;1.00;;;;;;;3.62;86.96;98733.86;106074;1270;24721;-56
2022/02/02 07:51:09;;;;;;;18.40;2.00;;;;;;;3.60;86.89;98740.58;105882;1270;22540;-56
2022/02/02 07:53:42;;;;;;;18.10;1.80;;;;;;;3.59;86.93;98740.23;105936;1270;22543;-57
2022/02/02 07:56:14;;;;;;;19.40;1.60;;;;;;;3.60;87.08;98741.29;106099;1270;22702;-59
2022/02/02 07:58:47;;;;;;;14.20;1.30;;;;;;;3.62;87.29;98734.92;105875;1270;24220;-56
2022/02/02 08:01:17;;;;;;;12.20;1.30;;;;;;;3.65;87.21;98740.45;105949;1270;22701;-56
2022/02/02 08:03:54;;;;;;;15.70;1.70;;;;;;;3.68;87.21;98739.86;105943;1270;22561;-56
2022/02/02 08:06:26;;;;;;;12.10;1.80;;;;;;;3.71;87.22;98745.25;105828;1270;24425;-57
2022/02/02 08:08:55;;;;;;;14.40;1.30;;;;;;;3.76;87.59;98758.40;106000;1270;25416;-57
2022/02/02 08:11:29;;;;;;;14.10;1.60;;;;;;;3.84;87.80;98757.92;105970;1270;26259;-58
2022/02/02 08:14:00;;;;;;;11.80;1.50;;;;;;;3.90;87.57;98767.06;105813;1270;24601;-56
2022/02/02 08:16:30;;;;;;;20.10;2.70;;;;;;;3.93;87.44;98775.91;106032;1270;22609;-57
2022/02/02 08:19:00;;;;;;;9.70;1.40;;;;;;;3.92;87.11;98779.35;105855;1270;25247;-58
2022/02/02 08:21:29;;;;;;;13.10;1.80;;;;;;;3.90;87.04;98786.63;105948;1270;25479;-58
2022/02/02 08:23:57;;;;;;;18.60;1.60;;;;;;;3.89;87.27;98788.63;106148;1270;22691;-53
2022/02/02 08:26:26;;;;;;;14.70;2.40;;;;;;;3.89;87.32;98792.28;105894;1270;24220;-57
2022/02/02 08:28:58;;;;;;;13.30;1.60;;;;;;;3.89;87.44;98792.92;106051;1270;27430;-57
2022/02/02 08:31:27;;;;;;;15.60;1.30;;;;;;;3.88;87.47;98794.31;105992;1270;25377;-56
2022/02/02 08:33:59;;;;;;;19.80;3.30;;;;;;;3.87;87.20;98794.74;106012;1270;22564;-56
2022/02/02 08:36:28;;;;;;;21.10;3.60;;;;;;;3.88;87.54;98799.99;105978;1270;24284;-59
2022/02/02 08:39:11;;;;;;;14.50;2.30;;;;;;;3.89;87.47;98802.62;106049;1270;22820;-58
2022/02/02 08:41:45;;;;;;;18.60;2.50;;;;;;;3.90;87.14;98806.45;105863;1270;22540;-57
2022/02/02 08:44:19;;;;;;;17.80;1.80;;;;;;;3.87;87.16;98808.09;106019;1270;22559;-57
2022/02/02 08:46:56;;;;;;;19.10;2.40;;;;;;;3.85;87.30;98817.87;105917;1270;24265;-57
2022/02/02 08:49:26;;;;;;;16.80;2.60;;;;;;;3.87;87.58;98822.75;105845;1270;24279;-56
2022/02/02 08:51:55;;;;;;;15.50;2.00;;;;;;;3.92;87.61;98828.67;105949;1270;22544;-57
2022/02/02 08:54:31;;;;;;;12.20;2.70;;;;;;;3.95;87.49;98830.16;105855;1270;25321;-57
2022/02/02 08:59:53;;;;;;;14.50;1.90;;;;;;;4.00;87.03;98826.36;105535;1274;23051;-58
2022/02/02 09:02:27;;;;;;;17.90;2.70;;;;;;;4.02;87.09;98819.48;105468;1276;22541;-58
2022/02/02 09:07:43;;;;;;;23.10;2.70;;;;;;;4.08;87.00;98828.05;105505;1275;22704;-58
2022/02/02 09:10:16;;;;;;;;;;;;;;;4.11;86.95;98835.52;105501;1276;22608;-57
2022/02/02 09:24:07;;;;;;;10.70;1.50;;;;;;;4.42;84.86;98838.98;105581;1275;22921;-58
2022/02/02 09:34:57;;;;;;;5.90;0.70;;;;;;;4.56;83.82;98859.73;105552;1276;24355;-58
2022/02/02 09:37:27;;;;;;;9.70;0.90;;;;;;;4.61;83.47;98852.55;105830;1270;26063;-54
2022/02/02 09:40:08;;;;;;;10.10;1.20;;;;;;;4.64;82.60;98856.55;106003;1270;22549;-58
2022/02/02 09:42:37;;;;;;;9.50;0.80;;;;;;;4.68;82.59;98868.84;105897;1270;26520;-59
2022/02/02 09:45:12;;;;;;;10.70;1.10;;;;;;;4.71;82.75;98863.96;106078;1270;25523;-57
2022/02/02 09:47:46;;;;;;;9.30;1.00;;;;;;;4.73;82.44;98866.52;105862;1270;26717;-60
2022/02/02 09:50:22;;;;;;;14.60;1.00;;;;;;;4.75;82.39;98874.81;105938;1270;24396;-56
2022/02/02 09:52:56;;;;;;;16.10;1.30;;;;;;;4.75;81.55;98872.55;105998;1270;22959;-56
2022/02/02 10:01:42;;;;;;;16.20;1.30;;;;;;;4.79;82.30;98889.62;105068;1282;22557;-58
2022/02/02 10:04:30;;;;;;;11.10;1.10;;;;;;;4.80;82.03;98898.45;105205;1282;22540;-57
2022/02/02 10:07:30;;;;;;;10.60;1.90;;;;;;;4.80;81.49;98897.64;105031;1282;25362;-56
2022/02/02 10:10:34;;;;;;;12.90;1.40;;;;;;;4.79;81.93;98900.73;105048;1282;25311;-57
2022/02/02 10:13:21;;;;;;;16.30;1.60;;;;;;;4.79;82.16;98905.00;105376;1282;22617;-55
2022/02/02 10:15:53;;;;;;;16.60;1.40;;;;;;;4.79;82.15;98910.92;105044;1282;22833;-55
2022/02/02 10:18:30;;;;;;;13.00;1.10;;;;;;;4.76;82.33;98901.27;105185;1282;25544;-58
2022/02/02 10:20:59;;;;;;;15.50;1.50;;;;;;;4.73;82.67;98905.16;104940;1282;25438;-57
2022/02/02 10:23:29;;;;;;;12.40;1.30;;;;;;;4.71;83.08;98904.08;105125;1282;22661;-55
2022/02/02 10:26:13;;;;;;;22.20;2.50;;;;;;;4.69;82.84;98904.98;105003;1282;22549;-57
2022/02/02 10:28:42;;;;;;;8.70;1.30;;;;;;;4.68;82.72;98911.66;104872;1282;22544;-59
2022/02/02 10:31:11;;;;;;;18.20;1.80;;;;;;;4.69;82.67;98911.13;105132;1282;25290;-58
2022/02/02 10:33:41;;;;;;;13.00;1.50;;;;;;;4.71;82.61;98921.27;105230;1282;24468;-57
2022/02/02 10:36:15;;;;;;;20.90;1.50;;;;;;;4.71;82.69;98916.48;105260;1276;25314;-59
2022/02/02 10:38:59;;;;;;;14.00;1.20;;;;;;;4.69;83.11;98915.92;105905;1270;23370;-56
2022/02/02 10:41:44;;;;;;;16.40;1.50;;;;;;;4.68;83.39;98916.63;105891;1270;22540;-56
2022/02/02 10:44:21;;;;;;;15.10;1.40;;;;;;;4.68;83.12;98916.13;106124;1270;25475;-57
2022/02/02 10:46:58;;;;;;;9.60;1.10;;;;;;;4.71;83.14;98915.24;105943;1270;22554;-56
2022/02/02 10:49:35;;;;;;;16.30;1.40;;;;;;;4.75;82.45;98912.92;105756;1270;22701;-57
2022/02/02 10:52:10;;;;;;;14.40;2.00;;;;;;;4.81;82.29;98913.99;105903;1270;24035;-58
2022/02/02 10:54:51;;;;;;;16.60;2.00;;;;;;;4.88;81.83;98917.34;106221;1271;24276;-56
2022/02/02 10:57:34;;;;;;;11.50;1.30;;;;;;;4.94;81.62;98911.64;106008;1271;22550;-58
2022/02/02 11:00:11;;;;;;;22.50;2.40;;;;;;;4.99;81.72;98913.54;106152;1271;22531;-57
2022/02/02 11:08:16;;;;;;;19.30;2.50;;;;;;;5.02;81.75;98909.86;105968;1271;25949;-58
2022/02/02 11:10:44;;;;;;;21.70;2.10;;;;;;;5.02;81.50;98910.89;106055;1271;22543;-57
2022/02/02 11:13:16;;;;;;;18.60;1.60;;;;;;;5.02;81.58;98913.30;106164;1271;23214;-58
2022/02/02 11:15:49;;;;;;;17.10;2.10;;;;;;;5.00;81.61;98914.98;106079;1271;22551;-55
2022/02/02 11:18:23;;;;;;;11.30;1.30;;;;;;;4.98;81.63;98914.63;106076;1271;24293;-57
2022/02/02 11:20:52;;;;;;;21.10;2.80;;;;;;;4.94;81.83;98916.06;106027;1271;22552;-56
2022/02/02 11:23:22;;;;;;;17.50;1.60;;;;;;;4.91;82.22;98920.64;106051;1271;23929;-57
2022/02/02 11:25:54;;;;;;;19.20;2.60;;;;;;;4.88;82.25;98921.98;106157;1271;24320;-59
2022/02/02 11:28:27;;;;;;;18.60;1.60;;;;;;;4.82;82.43;98928.39;106099;1270;22862;-60
2022/02/02 11:31:10;;;;;;;12.60;1.50;;;;;;;4.74;82.88;98932.84;106373;1270;22558;-61
2022/02/02 11:33:53;;;;;;;13.60;2.00;;;;;;;4.64;83.38;98941.23;106139;1270;24280;-62
2022/02/02 11:36:28;;;;;;;10.60;1.80;;;;;;;4.56;83.83;98970.79;106002;1271;26605;-59
2022/02/02 11:38:58;;;;;;;8.80;1.30;;;;;;;4.48;83.71;98991.67;106156;1271;22990;-60
2022/02/02 11:41:55;;;;;;;13.50;1.50;;;;;;;4.44;84.02;98994.80;106149;1271;22534;-56
2022/02/02 11:44:44;;;;;;;13.10;1.20;;;;;;;4.41;84.63;99003.36;106077;1270;22558;-58
2022/02/02 11:47:22;;;;;;;12.20;1.20;;;;;;;4.42;84.89;99000.50;106166;1271;22626;-57
2022/02/02 11:49:54;;;;;;;9.10;1.30;;;;;;;4.42;84.84;99010.44;106121;1270;23998;-58
2022/02/02 11:52:44;;;;;;;11.40;1.60;;;;;;;4.40;84.58;99008.88;106063;1270;22683;-57
2022/02/02 11:55:43;;;;;;;7.60;1.40;;;;;;;4.37;84.09;99017.79;106256;1271;22594;-58
2022/02/02 11:58:26;;;;;;;6.30;0.90;;;;;;;4.31;84.02;99016.80;106201;1270;22577;-59
2022/02/02 12:01:04;;;;;;;15.80;1.30;;;;;;;4.30;84.42;99020.09;106121;1271;22949;-61
2022/02/02 12:04:05;;;;;;;7.40;1.20;;;;;;;4.32;84.26;99029.27;106086;1271;26409;-57
2022/02/02 12:06:44;;;;;;;10.50;0.90;;;;;;;4.31;84.03;99029.29;106030;1270;22537;-56
2022/02/02 12:09:23;;;;;;;9.70;0.90;;;;;;;4.29;84.16;99027.49;106031;1270;25392;-55
2022/02/02 12:49:40;;;;;;;5.50;0.60;;;;;;;4.57;82.25;99109.68;104768;1284;22538;-58
2022/02/02 12:55:58;;;;;;;7.80;0.70;;;;;;;4.55;82.40;99119.48;104806;1284;25574;-58
2022/02/02 12:58:16;;;;;;;6.10;0.60;;;;;;;4.53;82.79;99120.97;105145;1284;24355;-58
2022/02/02 13:01:08;;;;;;;10.70;0.60;;;;;;;4.51;82.95;99132.19;104976;1284;25460;-56
2022/02/02 13:03:38;;;;;;;4.60;0.50;;;;;;;4.48;82.95;99145.13;105057;1280;25393;-59
2022/02/02 13:06:12;;;;;;;7.00;0.90;;;;;;;4.45;83.19;99134.75;105461;1279;22548;-60
2022/02/02 13:08:46;;;;;;;6.10;0.70;;;;;;;4.42;83.61;99147.34;105418;1279;23151;-57
2022/02/02 13:11:21;;;;;;;10.20;0.80;;;;;;;4.40;83.86;99153.66;105428;1279;25248;-57
2022/02/02 13:13:50;;;;;;;8.50;1.00;;;;;;;4.38;83.93;99160.18;105382;1279;22551;-56
2022/02/02 13:16:26;;;;;;;10.10;1.10;;;;;;;4.34;84.15;99170.69;105384;1279;22563;-57
2022/02/02 13:19:01;;;;;;;7.30;0.90;;;;;;;4.27;84.49;99171.25;105376;1279;25546;-56
2022/02/02 13:21:34;;;;;;;5.90;0.70;;;;;;;4.21;84.68;99179.01;105470;1281;26678;-58
2022/02/02 13:24:10;;;;;;;6.50;0.80;;;;;;;4.16;84.60;99180.00;105357;1278;22663;-57
2022/02/02 13:26:45;;;;;;;9.50;0.80;;;;;;;4.13;84.82;99187.00;105493;1273;23041;-57
2022/02/02 13:29:21;;;;;;;9.60;0.90;;;;;;;4.09;84.91;99189.20;105665;1270;22756;-58
2022/02/02 13:31:56;;;;;;;5.30;0.60;;;;;;;4.07;85.11;99198.08;105599;1270;22531;-57
2022/02/02 13:34:40;;;;;;;6.90;0.90;;;;;;;4.05;85.05;99189.40;105622;1271;22562;-55
2022/02/02 13:37:48;;;;;;;9.10;0.70;;;;;;;4.04;85.22;99193.69;105673;1271;22557;-58
2022/02/02 13:49:09;;;;;;;4.10;0.80;;;;;;;4.06;84.72;99223.30;105680;1270;22556;-56
2022/02/02 13:51:53;;;;;;;6.80;0.70;;;;;;;4.07;84.58;99240.31;105596;1271;22560;-57
2022/02/02 13:54:40;;;;;;;3.00;0.40;;;;;;;4.06;84.39;99245.77;105678;1270;25403;-57
2022/02/02 13:58:00;;;;;;;7.90;0.90;;;;;;;4.07;84.27;99255.38;105632;1271;22535;-56
2022/02/02 14:00:35;;;;;;;9.10;0.70;;;;;;;4.08;84.16;99266.14;105838;1271;24304;-58
2022/02/02 14:06:14;;;;;;;9.10;0.80;;;;;;;4.09;84.26;99277.14;105527;1271;23056;-57
2022/02/02 14:31:12;;;;;;;11.80;1.00;;;;;;;4.14;83.84;99317.20;105389;1278;22547;-57
2022/02/02 14:33:45;;;;;;;7.70;1.10;;;;;;;4.14;83.93;99320.57;105515;1278;24294;-59
2022/02/02 14:36:18;;;;;;;5.40;1.10;;;;;;;4.15;83.90;99328.67;105516;1276;22578;-57
2022/02/02 14:38:52;;;;;;;11.00;0.90;;;;;;;4.16;83.78;99336.22;105458;1276;22554;-56
2022/02/02 14:41:28;;;;;;;10.00;1.40;;;;;;;4.17;83.78;99339.88;105350;1278;22538;-58
2022/02/02 14:44:01;;;;;;;12.50;1.10;;;;;;;4.17;83.73;99352.00;105391;1276;25225;-55
2022/02/02 14:46:36;;;;;;;9.70;1.20;;;;;;;4.18;83.81;99363.71;105478;1279;22646;-57
2022/02/02 14:49:09;;;;;;;10.50;0.90;;;;;;;4.19;83.98;99362.90;105543;1278;22560;-58
2022/02/02 14:51:47;;;;;;;9.00;1.40;;;;;;;4.19;84.02;99365.85;105355;1276;22719;-60
2022/02/02 15:23:52;;;;;;;8.20;0.80;;;;;;;4.15;83.63;99412.48;105885;1276;25741;-57
2022/02/02 15:28:19;;;;;;;6.70;1.00;;;;;;;4.07;83.48;99446.64;105874;1278;22523;-57
2022/02/02 15:30:54;;;;;;;6.80;0.70;;;;;;;4.01;83.66;99449.77;105981;1276;25619;-58
2022/02/02 15:33:26;;;;;;;13.10;1.50;;;;;;;3.94;83.94;99461.80;106008;1276;22562;-57
2022/02/02 15:36:09;;;;;;;11.00;1.80;;;;;;;3.90;84.16;99462.92;106363;1271;26721;-57
2022/02/02 15:38:39;;;;;;;11.40;1.40;;;;;;;3.88;84.26;99476.52;106585;1271;24202;-59
2022/02/02 15:41:16;;;;;;;10.40;1.70;;;;;;;3.86;84.26;99479.31;107330;1270;22741;-58
2022/02/02 15:43:54;;;;;;;11.20;1.10;;;;;;;3.85;84.19;99489.00;106457;1272;22684;-57
2022/02/02 15:54:49;;;;;;;11.20;0.90;;;;;;;3.74;84.14;99516.70;106320;1271;24256;-58
2022/02/02 16:03:08;;;;;;;7.40;1.20;;;;;;;3.68;84.56;99527.42;105430;1284;24304;-56
2022/02/02 16:05:44;;;;;;;9.70;1.20;;;;;;;3.66;84.50;99541.60;105553;1283;22525;-58
2022/02/02 16:08:15;;;;;;;6.20;1.00;;;;;;;3.65;84.77;99548.49;105515;1285;22936;-57
2022/02/02 16:10:50;;;;;;;7.20;0.90;;;;;;;3.63;85.14;99562.44;105560;1284;22579;-60
2022/02/02 16:13:30;;;;;;;11.70;1.50;;;;;;;3.61;85.43;99571.84;105386;1284;26529;-57
2022/02/02 16:16:03;;;;;;;6.30;1.10;;;;;;;3.58;85.84;99584.23;105703;1284;24323;-58
2022/02/02 16:18:40;;;;;;;8.50;0.90;;;;;;;3.55;86.09;99597.91;105715;1284;24928;-61
2022/02/02 16:33:02;;;;;;;2.90;0.20;;;;;;;3.16;86.16;99655.86;105492;1284;22547;-62
2022/02/02 16:35:56;;;;;;;1.20;0.20;;;;;;;2.91;86.55;99649.28;105644;1284;22540;-59
2022/02/02 16:38:28;;;;;;;2.90;0.30;;;;;;;2.79;86.73;99669.02;106114;1281;22600;-57
2022/02/02 16:40:58;;;;;;;3.40;0.40;;;;;;;2.73;87.13;99673.16;106426;1271;22570;-60
2022/02/02 16:43:27;;;;;;;6.90;0.70;;;;;;;2.70;87.40;99685.68;106534;1271;22548;-59
2022/02/02 16:45:56;;;;;;;6.80;0.80;;;;;;;2.68;87.60;99687.70;106460;1271;24219;-57
2022/02/02 16:48:25;;;;;;;5.00;0.70;;;;;;;2.67;87.84;99697.28;106691;1271;24386;-55
2022/02/02 16:50:57;;;;;;;5.70;1.30;;;;;;;2.67;88.01;99697.04;106525;1271;25289;-58
2022/02/02 16:53:34;;;;;;;3.50;0.50;;;;;;;2.67;87.68;99701.52;106405;1271;23902;-58
2022/02/02 16:56:09;;;;;;;3.10;0.60;;;;;;;2.66;87.78;99712.73;106388;1271;22570;-57
2022/02/02 17:32:16;;;;;;;4.30;0.60;;;;;;;2.26;87.61;99802.95;106266;1271;22621;-59
2022/02/02 17:34:51;;;;;;;6.20;0.90;;;;;;;2.23;87.79;99807.05;106318;1271;22537;-57
2022/02/02 17:37:40;;;;;;;2.90;0.60;;;;;;;2.20;87.46;99808.30;106391;1271;22566;-57
2022/02/02 17:40:15;;;;;;;3.40;0.70;;;;;;;2.17;87.50;99808.45;106246;1271;23444;-56
2022/02/02 17:43:08;;;;;;;3.70;0.70;;;;;;;2.14;87.47;99814.27;106473;1271;22551;-58
2022/02/02 17:45:48;;;;;;;6.60;1.00;;;;;;;2.10;87.54;99823.27;106416;1271;24135;-56
2022/02/02 17:57:48;;;;;;;6.20;0.90;;;;;;;2.03;88.08;99843.89;106113;1271;23948;-56
2022/02/02 18:19:48;;;;;;;6.20;1.00;;;;;;;2.12;88.97;99898.11;105563;1276;25315;-64
2022/02/02 18:22:18;;;;;;;4.60;1.00;;;;;;;2.11;88.69;99904.21;105634;1276;26080;-64
2022/02/02 18:24:59;;;;;;;5.20;1.20;;;;;;;2.10;88.55;99910.83;105913;1276;22528;-62
2022/02/02 18:27:37;;;;;;;7.10;1.20;;;;;;;2.08;88.85;99920.73;105257;1276;24279;-61
2022/02/02 18:30:22;;;;;;;8.00;1.20;;;;;;;2.06;89.14;99928.02;105862;1276;22548;-62
2022/02/02 18:33:05;;;;;;;5.00;1.10;;;;;;;2.03;89.07;99927.66;105232;1277;22554;-60
2022/02/02 18:35:39;;;;;;;7.60;1.40;;;;;;;1.99;89.09;99930.50;105181;1277;26369;-61
2022/02/02 18:49:27;;;;;;;5.80;0.90;;;;;;;1.84;89.35;99959.89;105517;1274;22548;-62
2022/02/02 18:52:34;;;;;;;6.40;1.70;;;;;;;1.83;89.12;99963.90;105601;1274;25444;-60
2022/02/02 18:55:08;;;;;;;7.50;1.40;;;;;;;1.83;89.48;99972.73;105968;1273;22568;-60
2022/02/02 18:57:50;;;;;;;6.70;1.40;;;;;;;1.84;89.31;99978.52;105770;1274;23347;-59
2022/02/02 19:00:41;;;;;;;7.60;1.40;;;;;;;1.85;89.33;99991.64;105711;1274;24305;-60
2022/02/02 19:31:31;;;;;;;3.50;0.80;;;;;;;1.88;87.95;100087.90;105539;1274;22619;-62
2022/02/02 19:37:25;;;;;;;3.20;0.40;;;;;;;1.67;85.86;100106.17;108797;1281;22576;-62
2022/02/02 19:56:57;;;;;;;4.70;1.00;;;;;;;1.33;86.35;100142.30;109310;1274;22569;-61
2022/02/02 20:02:49;;;;;;;6.40;1.20;;;;;;;1.38;86.60;100145.84;109337;1273;23150;-61
2022/02/02 20:05:34;;;;;;;5.60;1.20;;;;;;;1.41;86.53;100145.63;105492;1274;23943;-60